Time;durP1;ratioP1;P1;durP2;ratioP2;P2;SDS_P1;SDS_P2;PMS_P1;PMS_P2;Temp;Humidity;BMP_temperature;BMP_pressure;BME280_temperature;BME280_humidity;BME280_pressure;Samples;Min_cycle;Max_cycle;Signal;HPM_P1;HPM_P2
2021/10/22 00:00:16;;;;;;;41.60;24.80;;;;;;;13.92;52.00;100168.51;117352;1184;24152;-57
2021/10/22 00:02:44;;;;;;;38.10;25.10;;;;;;;13.92;51.95;100169.19;117308;1184;21845;-58
2021/10/22 00:05:13;;;;;;;20.60;14.80;;;;;;;13.91;51.99;100179.11;117343;1183;21851;-57
2021/10/22 00:07:42;;;;;;;33.80;22.40;;;;;;;13.90;52.08;100173.67;117381;1176;21857;-56
2021/10/22 00:10:23;;;;;;;23.40;16.00;;;;;;;13.90;51.83;100172.63;117375;1182;24165;-57
2021/10/22 00:12:56;;;;;;;34.70;24.20;;;;;;;13.91;51.77;100164.30;117295;1186;23467;-57
2021/10/22 00:15:38;;;;;;;36.50;24.90;;;;;;;13.87;51.87;100157.74;117367;1188;21843;-57
2021/10/22 00:18:07;;;;;;;22.00;16.90;;;;;;;13.80;51.94;100162.36;117380;1185;21844;-57
2021/10/22 00:20:35;;;;;;;18.70;14.30;;;;;;;13.79;51.85;100165.20;117435;1185;24163;-57
2021/10/22 00:23:03;;;;;;;36.60;23.80;;;;;;;13.77;52.09;100163.28;117384;1184;23465;-57
2021/10/22 00:25:32;;;;;;;29.00;19.90;;;;;;;13.75;51.91;100167.41;117364;1185;24165;-56
2021/10/22 00:28:01;;;;;;;20.20;14.80;;;;;;;13.73;51.90;100174.86;117347;1180;21874;-57
2021/10/22 00:30:30;;;;;;;24.90;18.40;;;;;;;13.70;51.97;100173.01;117363;1182;21863;-58
2021/10/22 00:32:58;;;;;;;22.70;16.40;;;;;;;13.68;51.91;100168.67;117386;1182;21873;-56
2021/10/22 00:35:26;;;;;;;21.50;18.00;;;;;;;13.52;52.03;100159.42;117334;1183;21855;-56
2021/10/22 00:37:54;;;;;;;21.80;15.00;;;;;;;13.44;52.06;100163.89;117317;1185;23446;-56
2021/10/22 00:40:23;;;;;;;17.80;13.30;;;;;;;13.38;52.12;100166.66;117420;1184;21858;-57
2021/10/22 00:42:53;;;;;;;21.10;13.40;;;;;;;13.47;51.85;100172.08;117410;1185;22914;-58
2021/10/22 00:45:22;;;;;;;21.90;16.80;;;;;;;13.45;51.86;100162.83;117370;1185;21872;-56
2021/10/22 00:47:50;;;;;;;19.90;13.70;;;;;;;13.41;51.85;100161.84;117364;1182;23468;-57
2021/10/22 00:50:19;;;;;;;17.80;13.50;;;;;;;13.39;51.83;100164.86;117427;1185;21895;-57
2021/10/22 00:52:47;;;;;;;19.80;13.00;;;;;;;13.26;52.06;100169.27;117443;1188;21855;-56
2021/10/22 00:55:16;;;;;;;16.30;12.50;;;;;;;13.12;52.22;100166.63;117443;1184;21889;-57
2021/10/22 00:57:46;;;;;;;16.60;12.70;;;;;;;13.09;52.33;100168.80;117356;1185;23465;-56
2021/10/22 01:00:14;;;;;;;15.50;11.40;;;;;;;13.05;52.12;100171.20;117391;1183;21857;-56
2021/10/22 01:02:43;;;;;;;12.90;11.20;;;;;;;13.00;52.21;100175.41;119387;1182;22290;-57
2021/10/22 01:05:14;;;;;;;20.30;12.70;;;;;;;12.93;52.23;100177.52;117990;1182;22934;-58
2021/10/22 01:07:43;;;;;;;17.00;13.00;;;;;;;12.87;52.35;100180.30;117431;1182;22912;-57
2021/10/22 01:10:12;;;;;;;16.40;11.90;;;;;;;12.83;52.29;100181.45;117503;1183;23484;-57
2021/10/22 01:12:41;;;;;;;15.90;12.30;;;;;;;12.80;52.19;100184.88;117274;1183;22843;-57
2021/10/22 01:15:09;;;;;;;14.50;12.10;;;;;;;12.75;52.43;100185.16;117375;1185;23439;-58
2021/10/22 01:17:41;;;;;;;16.90;12.80;;;;;;;12.73;52.30;100183.63;117394;1185;22678;-56
2021/10/22 01:20:13;;;;;;;18.00;12.70;;;;;;;12.71;52.29;100187.20;117414;1182;24127;-57
2021/10/22 01:22:42;;;;;;;19.30;12.80;;;;;;;12.68;52.21;100181.30;117416;1185;21858;-56
2021/10/22 01:25:13;;;;;;;19.00;12.60;;;;;;;12.65;52.31;100181.71;117473;1184;21864;-58
2021/10/22 01:27:42;;;;;;;19.80;12.30;;;;;;;12.71;51.93;100188.79;117429;1179;23547;-58
2021/10/22 01:30:11;;;;;;;15.40;12.20;;;;;;;12.73;51.89;100188.20;117444;1185;22509;-58
2021/10/22 01:32:39;;;;;;;16.30;12.00;;;;;;;12.70;52.06;100187.05;117422;1185;21854;-58
2021/10/22 01:35:09;;;;;;;17.90;13.30;;;;;;;12.68;51.96;100190.98;117390;1185;21845;-58
2021/10/22 01:37:38;;;;;;;18.00;13.40;;;;;;;12.66;51.95;100191.73;117434;1184;21878;-57
2021/10/22 01:40:07;;;;;;;16.30;12.60;;;;;;;12.61;51.85;100196.05;117425;1182;21844;-56
2021/10/22 01:42:37;;;;;;;18.80;13.00;;;;;;;12.59;51.89;100193.98;117436;1185;22619;-57
2021/10/22 01:45:08;;;;;;;18.10;12.40;;;;;;;12.58;51.84;100199.84;117455;1185;24143;-57
2021/10/22 01:47:36;;;;;;;19.40;13.50;;;;;;;12.53;51.81;100199.60;117415;1182;21865;-57
2021/10/22 01:50:05;;;;;;;17.80;12.70;;;;;;;12.47;51.90;100197.09;117539;1185;23798;-56
2021/10/22 01:52:34;;;;;;;18.00;12.70;;;;;;;12.43;51.80;100190.84;117396;1185;21855;-58
2021/10/22 01:55:03;;;;;;;17.90;13.40;;;;;;;12.41;51.80;100198.27;117429;1185;21858;-57
2021/10/22 01:57:31;;;;;;;18.10;14.70;;;;;;;12.39;51.79;100200.60;117550;1182;21858;-57
2021/10/22 02:00:00;;;;;;;16.50;13.30;;;;;;;12.38;51.83;100201.34;117398;1185;21848;-57
2021/10/22 02:02:28;;;;;;;17.70;14.60;;;;;;;12.35;51.88;100202.29;117396;1182;22837;-57
2021/10/22 02:04:56;;;;;;;18.00;14.10;;;;;;;12.34;51.99;100204.61;117391;1182;23567;-56
2021/10/22 02:07:25;;;;;;;19.30;15.80;;;;;;;12.32;51.96;100204.64;117405;1182;23469;-57
2021/10/22 02:09:53;;;;;;;19.80;15.80;;;;;;;12.30;51.90;100203.63;117464;1184;22644;-58
2021/10/22 02:12:21;;;;;;;20.40;16.30;;;;;;;12.30;52.05;100206.63;117450;1185;23074;-58
2021/10/22 02:14:50;;;;;;;23.70;17.10;;;;;;;12.28;51.92;100207.91;117336;1182;22821;-58
2021/10/22 02:17:23;;;;;;;21.20;17.60;;;;;;;12.27;52.05;100204.95;117387;1179;23581;-57
2021/10/22 02:19:51;;;;;;;23.50;18.10;;;;;;;12.26;52.04;100210.58;117390;1182;24152;-59
2021/10/22 02:22:19;;;;;;;23.80;17.10;;;;;;;12.23;52.23;100214.69;117381;1184;21854;-57
2021/10/22 02:24:48;;;;;;;22.80;17.30;;;;;;;12.25;52.21;100219.21;117338;1182;22562;-57
2021/10/22 02:27:16;;;;;;;25.00;17.80;;;;;;;12.25;52.09;100223.27;117440;1184;23660;-58
2021/10/22 02:29:44;;;;;;;24.70;17.70;;;;;;;12.25;52.04;100225.04;117413;1185;21848;-58
2021/10/22 02:32:12;;;;;;;22.10;16.80;;;;;;;12.25;52.07;100226.27;117425;1185;22937;-58
2021/10/22 02:34:41;;;;;;;21.50;17.50;;;;;;;12.23;52.05;100233.87;117340;1185;24200;-57
2021/10/22 02:37:09;;;;;;;21.00;15.80;;;;;;;12.19;51.96;100238.34;117384;1182;23474;-56
2021/10/22 02:39:37;;;;;;;19.10;15.90;;;;;;;12.21;52.03;100243.41;117449;1180;22173;-57
2021/10/22 02:42:05;;;;;;;21.80;16.10;;;;;;;12.19;51.93;100243.27;117366;1183;23445;-57
2021/10/22 02:44:34;;;;;;;22.70;16.20;;;;;;;12.15;51.94;100242.46;117418;1179;24142;-57
2021/10/22 02:47:03;;;;;;;21.40;16.70;;;;;;;12.15;51.91;100241.77;117524;1176;22361;-57
2021/10/22 02:49:32;;;;;;;23.00;17.40;;;;;;;12.15;52.12;100243.54;117445;1182;21924;-58
2021/10/22 02:52:01;;;;;;;20.80;16.90;;;;;;;12.13;51.85;100239.02;117421;1183;23469;-58
2021/10/22 02:54:29;;;;;;;23.80;17.10;;;;;;;12.04;52.07;100239.00;117341;1182;22985;-57
2021/10/22 02:56:58;;;;;;;29.40;17.50;;;;;;;12.07;52.05;100237.19;117398;1182;22922;-56
2021/10/22 02:59:26;;;;;;;25.70;18.20;;;;;;;12.00;52.24;100233.29;117434;1185;21864;-59
2021/10/22 03:01:54;;;;;;;20.70;17.50;;;;;;;11.91;52.55;100237.48;117376;1182;24138;-58
2021/10/22 03:04:23;;;;;;;25.90;17.90;;;;;;;12.01;52.14;100241.70;117371;1185;21855;-58
2021/10/22 03:06:51;;;;;;;24.50;18.40;;;;;;;11.98;52.03;100238.23;117417;1185;21864;-57
2021/10/22 03:09:19;;;;;;;26.80;18.40;;;;;;;12.00;52.11;100239.79;117426;1185;23442;-58
2021/10/22 03:11:47;;;;;;;19.50;16.20;;;;;;;11.94;52.06;100242.52;117400;1185;23370;-57
2021/10/22 03:14:16;;;;;;;22.60;17.40;;;;;;;11.78;52.39;100241.08;117420;1182;23439;-57
2021/10/22 03:16:45;;;;;;;21.00;17.30;;;;;;;11.70;52.39;100239.64;117388;1184;23442;-57
2021/10/22 03:19:13;;;;;;;22.70;18.10;;;;;;;11.67;52.51;100244.64;117408;1185;23471;-57
2021/10/22 03:21:42;;;;;;;26.10;17.60;;;;;;;11.64;52.36;100244.86;117386;1182;23442;-57
2021/10/22 03:24:10;;;;;;;20.90;16.50;;;;;;;11.61;52.53;100246.85;117506;1185;21845;-57
2021/10/22 03:26:38;;;;;;;20.10;16.40;;;;;;;11.58;52.37;100248.14;117462;1182;23334;-57
2021/10/22 03:29:07;;;;;;;21.40;16.90;;;;;;;11.56;52.50;100245.35;117412;1176;21886;-58
2021/10/22 03:31:35;;;;;;;18.60;16.00;;;;;;;11.52;52.61;100245.77;117332;1185;21845;-59
2021/10/22 03:34:04;;;;;;;20.80;17.10;;;;;;;11.51;52.51;100243.70;117371;1185;23653;-58
2021/10/22 03:36:36;;;;;;;21.50;17.60;;;;;;;11.49;52.68;100254.96;117337;1185;23464;-59
2021/10/22 03:39:06;;;;;;;22.80;16.90;;;;;;;11.48;52.71;100257.11;117389;1185;23522;-59
2021/10/22 03:41:35;;;;;;;22.40;18.00;;;;;;;11.47;52.67;100254.66;117421;1185;21854;-58
2021/10/22 03:44:03;;;;;;;21.50;17.20;;;;;;;11.45;52.61;100257.34;117402;1184;22915;-57
2021/10/22 03:46:32;;;;;;;24.60;17.10;;;;;;;11.43;52.69;100256.65;117439;1185;21864;-57
2021/10/22 03:49:00;;;;;;;21.50;17.70;;;;;;;11.43;52.61;100258.95;117416;1179;21863;-57
2021/10/22 03:51:29;;;;;;;22.30;17.40;;;;;;;11.43;52.75;100258.95;117347;1185;24544;-57
2021/10/22 03:53:59;;;;;;;22.80;17.40;;;;;;;11.43;52.71;100261.05;117355;1185;21858;-57
2021/10/22 03:56:27;;;;;;;21.50;16.60;;;;;;;11.46;52.78;100262.58;117394;1185;23085;-58
2021/10/22 03:58:56;;;;;;;24.10;18.20;;;;;;;11.49;52.82;100259.36;117382;1185;21868;-57
2021/10/22 04:01:24;;;;;;;23.20;17.60;;;;;;;11.50;52.72;100262.33;117441;1182;22915;-58
2021/10/22 04:03:52;;;;;;;22.30;16.90;;;;;;;11.50;52.82;100265.33;117361;1182;23439;-57
2021/10/22 04:06:20;;;;;;;21.50;17.10;;;;;;;11.49;52.78;100267.09;117340;1184;21855;-58
2021/10/22 04:08:49;;;;;;;22.20;17.80;;;;;;;11.51;52.83;100270.39;117492;1185;23439;-58
2021/10/22 04:11:18;;;;;;;24.50;17.70;;;;;;;11.52;52.76;100267.21;117317;1185;23466;-57
2021/10/22 04:13:46;;;;;;;26.50;17.90;;;;;;;11.52;52.57;100270.39;117408;1185;23439;-57
2021/10/22 04:16:14;;;;;;;25.70;17.80;;;;;;;11.52;52.77;100271.96;117358;1185;23557;-57
2021/10/22 04:18:43;;;;;;;30.00;18.80;;;;;;;11.53;52.80;100266.50;117434;1182;23452;-59
2021/10/22 04:21:12;;;;;;;24.10;18.70;;;;;;;11.56;52.63;100268.71;117407;1185;23441;-59
2021/10/22 04:23:41;;;;;;;23.20;18.70;;;;;;;11.56;52.78;100271.36;117307;1185;24236;-58
2021/10/22 04:26:09;;;;;;;23.50;18.50;;;;;;;11.57;52.76;100275.73;117323;1185;22615;-57
2021/10/22 04:28:38;;;;;;;23.00;18.80;;;;;;;11.56;52.99;100278.55;117372;1183;21858;-58
2021/10/22 04:31:06;;;;;;;28.90;19.40;;;;;;;11.61;52.87;100279.52;117365;1185;23440;-58
2021/10/22 04:33:35;;;;;;;25.90;19.20;;;;;;;11.66;52.79;100284.55;117328;1182;21845;-56
2021/10/22 04:36:06;;;;;;;27.30;20.10;;;;;;;11.66;52.73;100285.08;117471;1184;22957;-57
2021/10/22 04:41:21;;;;;;;77.70;24.00;;;;;;;11.61;53.05;100292.89;117426;1180;22935;-59
2021/10/22 04:43:50;;;;;;;157.00;31.10;;;;;;;11.61;52.96;100290.96;117386;1177;21848;-56
2021/10/22 04:46:19;;;;;;;74.80;24.10;;;;;;;11.62;52.95;100290.25;117402;1185;21848;-57
2021/10/22 04:48:47;;;;;;;142.60;29.60;;;;;;;11.63;53.16;100296.55;117369;1184;22914;-57
2021/10/22 04:51:15;;;;;;;53.50;23.70;;;;;;;11.68;52.97;100293.48;117415;1182;21855;-57
2021/10/22 04:53:44;;;;;;;34.70;23.10;;;;;;;11.70;52.89;100295.36;118043;1185;22506;-59
2021/10/22 04:56:12;;;;;;;31.10;21.60;;;;;;;11.72;53.01;100300.41;117304;1185;21855;-57
2021/10/22 04:58:40;;;;;;;37.50;21.20;;;;;;;11.78;52.98;100305.58;117390;1176;21858;-58
2021/10/22 05:01:09;;;;;;;28.00;21.50;;;;;;;11.82;53.02;100310.97;117438;1182;23538;-58
2021/10/22 05:03:37;;;;;;;29.00;21.50;;;;;;;11.85;52.93;100314.96;117481;1183;21851;-58
2021/10/22 05:06:05;;;;;;;30.50;22.50;;;;;;;11.91;52.98;100318.55;117471;1183;22613;-57
2021/10/22 05:08:34;;;;;;;27.60;21.50;;;;;;;11.97;52.99;100320.55;117442;1183;24156;-59
2021/10/22 05:11:02;;;;;;;26.30;21.30;;;;;;;11.95;53.18;100322.69;117355;1185;23452;-57
2021/10/22 05:13:31;;;;;;;29.00;20.70;;;;;;;11.97;53.16;100328.63;117381;1185;21859;-57
2021/10/22 05:16:00;;;;;;;27.00;22.00;;;;;;;12.00;53.15;100331.58;117350;1186;22349;-57
2021/10/22 05:18:29;;;;;;;29.00;21.70;;;;;;;12.07;53.16;100335.85;117453;1185;21858;-57
2021/10/22 05:20:58;;;;;;;30.20;23.80;;;;;;;12.15;53.11;100340.80;117482;1184;21889;-57
2021/10/22 05:23:26;;;;;;;28.40;22.60;;;;;;;12.18;53.30;100340.89;117388;1177;21869;-58
2021/10/22 05:25:54;;;;;;;29.10;22.90;;;;;;;12.24;53.21;100340.27;117419;1185;22900;-57
2021/10/22 05:28:22;;;;;;;32.90;25.10;;;;;;;12.30;53.21;100342.45;117417;1182;22462;-57
2021/10/22 05:30:51;;;;;;;31.30;23.60;;;;;;;12.36;53.35;100349.19;117410;1185;24182;-59
2021/10/22 05:33:21;;;;;;;31.40;23.70;;;;;;;12.41;53.24;100348.38;117431;1185;22320;-57
2021/10/22 05:35:49;;;;;;;29.30;25.30;;;;;;;12.47;53.36;100354.78;117403;1186;21866;-59
2021/10/22 05:38:18;;;;;;;35.10;24.60;;;;;;;12.53;53.32;100357.82;117291;1182;22619;-57
2021/10/22 05:40:46;;;;;;;32.40;23.10;;;;;;;12.59;53.49;100360.85;117422;1185;21909;-58
2021/10/22 05:43:15;;;;;;;34.80;24.10;;;;;;;12.68;53.40;100358.05;117424;1184;21858;-57
2021/10/22 05:45:43;;;;;;;31.20;25.80;;;;;;;12.76;53.49;100367.37;117482;1185;21845;-58
2021/10/22 05:48:12;;;;;;;36.00;24.50;;;;;;;12.86;53.52;100372.09;117340;1183;21882;-57
2021/10/22 05:50:41;;;;;;;33.50;24.50;;;;;;;12.94;53.55;100375.09;117322;1182;21964;-58
2021/10/22 05:53:09;;;;;;;34.10;26.30;;;;;;;13.03;53.59;100375.41;117416;1185;21861;-58
2021/10/22 05:55:38;;;;;;;30.00;24.40;;;;;;;13.13;53.52;100378.89;117403;1183;24153;-58
2021/10/22 05:58:07;;;;;;;32.60;24.50;;;;;;;13.22;53.77;100382.02;117352;1188;21846;-58
2021/10/22 06:00:35;;;;;;;29.20;23.80;;;;;;;13.32;53.59;100385.86;117423;1184;23458;-57
2021/10/22 06:03:03;;;;;;;28.20;21.60;;;;;;;13.42;53.58;100386.35;117257;1185;23541;-58
2021/10/22 06:05:32;;;;;;;29.20;23.50;;;;;;;13.51;53.54;100386.66;117322;1184;21882;-58
2021/10/22 06:08:00;;;;;;;33.40;24.10;;;;;;;13.62;53.62;100391.15;117413;1185;23548;-57
2021/10/22 06:10:29;;;;;;;32.00;24.80;;;;;;;13.73;53.69;100395.14;117391;1185;24291;-58
2021/10/22 06:13:07;;;;;;;30.70;22.70;;;;;;;13.84;53.73;100390.96;117344;1185;23439;-58
2021/10/22 06:15:35;;;;;;;28.40;22.90;;;;;;;13.95;53.62;100393.15;117379;1185;21865;-57
2021/10/22 06:18:03;;;;;;;28.10;22.90;;;;;;;14.05;53.80;100399.61;117388;1184;21854;-57
2021/10/22 06:20:44;;;;;;;26.00;21.10;;;;;;;14.17;53.82;100408.80;117429;1183;23867;-57
2021/10/22 06:26:00;;;;;;;52.60;23.80;;;;;;;14.42;53.88;100407.23;117426;1182;23442;-57
2021/10/22 06:28:29;;;;;;;27.90;20.70;;;;;;;14.55;53.88;100411.83;117452;1183;24215;-59
2021/10/22 06:30:58;;;;;;;29.50;20.40;;;;;;;14.67;53.92;100409.92;117442;1185;21856;-58
2021/10/22 06:33:26;;;;;;;26.10;20.90;;;;;;;14.81;53.91;100410.27;117468;1183;24166;-59
2021/10/22 06:35:55;;;;;;;24.40;19.00;;;;;;;14.95;53.97;100411.42;117366;1184;21854;-58
2021/10/22 06:38:24;;;;;;;21.90;18.40;;;;;;;15.06;54.01;100407.73;117511;1183;23547;-58
2021/10/22 06:40:55;;;;;;;22.20;18.50;;;;;;;15.18;54.14;100405.61;117357;1185;23547;-58
2021/10/22 06:43:24;;;;;;;23.20;18.70;;;;;;;15.32;54.09;100405.71;117340;1183;24162;-57
2021/10/22 06:45:53;;;;;;;23.50;18.40;;;;;;;15.49;53.99;100405.34;117197;1185;21855;-57
2021/10/22 06:48:21;;;;;;;21.20;18.30;;;;;;;15.63;53.96;100406.48;117392;1185;23443;-59
2021/10/22 06:50:50;;;;;;;22.00;17.20;;;;;;;15.78;54.07;100403.88;117370;1185;21920;-58
2021/10/22 06:53:18;;;;;;;21.40;17.90;;;;;;;15.92;54.09;100402.90;117324;1186;21858;-57
2021/10/22 06:55:46;;;;;;;18.70;16.70;;;;;;;16.07;54.07;100404.52;117363;1185;23006;-57
2021/10/22 06:58:15;;;;;;;19.90;15.50;;;;;;;16.23;54.09;100403.08;117391;1185;21848;-57
2021/10/22 07:00:48;;;;;;;18.60;15.30;;;;;;;16.38;54.17;100399.54;117352;1185;22908;-58
2021/10/22 07:03:24;;;;;;;20.90;16.50;;;;;;;16.54;54.12;100400.73;117359;1184;24152;-58
2021/10/22 07:08:26;;;;;;;17.80;14.70;;;;;;;16.90;54.03;100393.36;117547;1185;21859;-58
2021/10/22 07:11:17;;;;;;;21.00;15.90;;;;;;;17.04;54.05;100396.60;117290;1185;21848;-58
2021/10/22 07:14:07;;;;;;;21.10;15.40;;;;;;;17.20;54.15;100397.56;117349;1184;21891;-58
2021/10/22 07:16:55;;;;;;;18.80;15.60;;;;;;;17.41;54.15;100395.29;117358;1184;22963;-57
2021/10/22 07:19:23;;;;;;;20.00;15.10;;;;;;;17.56;54.16;100397.19;117428;1182;21858;-58
2021/10/22 07:21:52;;;;;;;27.90;14.20;;;;;;;17.70;54.08;100401.21;117327;1185;23442;-58
2021/10/22 07:24:23;;;;;;;19.40;13.60;;;;;;;17.84;54.06;100405.06;117385;1183;22332;-57
2021/10/22 07:26:51;;;;;;;20.70;14.90;;;;;;;17.96;54.10;100405.64;117309;1185;21853;-58
2021/10/22 07:29:20;;;;;;;21.30;13.80;;;;;;;18.09;54.03;100406.90;117344;1185;23461;-58
2021/10/22 07:31:48;;;;;;;19.70;14.80;;;;;;;18.22;54.07;100405.27;117485;1185;23440;-57
2021/10/22 07:34:20;;;;;;;17.90;13.70;;;;;;;18.36;54.07;100400.54;117314;1186;21848;-58
2021/10/22 07:36:49;;;;;;;20.70;13.00;;;;;;;18.50;54.00;100400.14;117358;1185;21899;-58
2021/10/22 07:39:19;;;;;;;16.10;12.40;;;;;;;18.61;54.00;100395.16;117344;1185;21901;-57
2021/10/22 07:42:06;;;;;;;21.90;11.60;;;;;;;18.77;54.01;100392.34;117360;1184;23547;-58
2021/10/22 07:44:53;;;;;;;38.60;12.90;;;;;;;18.91;54.15;100398.26;117354;1182;23478;-58
2021/10/22 07:47:22;;;;;;;16.80;10.30;;;;;;;19.01;54.18;100397.13;117356;1184;21890;-58
2021/10/22 07:49:51;;;;;;;10.30;9.10;;;;;;;19.15;54.12;100398.39;117393;1186;21931;-58
2021/10/22 07:52:22;;;;;;;11.60;8.50;;;;;;;19.31;54.18;100399.42;117312;1185;24162;-59
2021/10/22 07:54:55;;;;;;;9.20;7.50;;;;;;;19.46;54.16;100396.02;117343;1183;24191;-58
2021/10/22 07:57:23;;;;;;;11.00;8.20;;;;;;;19.60;54.06;100393.36;117410;1183;22652;-58
2021/10/22 07:59:52;;;;;;;9.30;7.60;;;;;;;19.76;54.13;100395.98;117387;1185;21858;-59
2021/10/22 08:02:21;;;;;;;10.50;7.30;;;;;;;19.92;54.09;100399.62;117418;1185;22610;-59
2021/10/22 08:04:51;;;;;;;9.90;7.00;;;;;;;20.07;54.05;100401.17;117411;1183;23560;-58
2021/10/22 08:07:29;;;;;;;9.50;7.20;;;;;;;20.24;54.11;100398.76;117434;1186;21855;-59
2021/10/22 08:10:01;;;;;;;10.80;6.80;;;;;;;20.41;54.04;100398.02;117456;1182;22957;-58
2021/10/22 08:12:32;;;;;;;8.30;6.30;;;;;;;20.57;54.05;100392.01;117439;1185;21857;-59
2021/10/22 08:15:03;;;;;;;9.90;6.60;;;;;;;20.72;53.89;100394.05;117404;1185;21855;-58
2021/10/22 08:17:31;;;;;;;8.80;6.10;;;;;;;20.86;53.90;100395.41;117444;1182;24166;-58
2021/10/22 08:20:09;;;;;;;7.90;6.30;;;;;;;20.99;53.85;100399.92;117427;1183;23662;-59
2021/10/22 08:22:38;;;;;;;10.80;7.10;;;;;;;21.09;53.82;100403.30;117349;1183;23570;-58
2021/10/22 08:25:12;;;;;;;9.90;7.30;;;;;;;21.18;53.64;100407.96;117325;1183;22617;-59
2021/10/22 08:27:45;;;;;;;11.90;7.30;;;;;;;21.25;53.58;100409.33;117393;1185;23563;-59
2021/10/22 08:30:18;;;;;;;11.10;6.70;;;;;;;21.34;53.56;100413.67;117420;1184;23519;-58
2021/10/22 08:32:50;;;;;;;8.90;6.40;;;;;;;21.42;53.43;100415.90;117491;1181;23020;-59
2021/10/22 08:35:19;;;;;;;9.20;6.40;;;;;;;21.47;53.42;100410.62;117364;1183;23474;-59
2021/10/22 08:37:52;;;;;;;14.30;6.90;;;;;;;21.53;53.52;100409.19;117397;1179;24154;-58
2021/10/22 08:40:21;;;;;;;9.50;6.50;;;;;;;21.61;53.47;100411.77;117411;1180;21847;-58
2021/10/22 08:42:54;;;;;;;9.20;6.90;;;;;;;21.72;53.36;100417.05;117399;1185;23445;-59
2021/10/22 08:45:22;;;;;;;11.20;6.70;;;;;;;21.83;53.44;100415.14;117520;1185;21860;-59
2021/10/22 08:47:50;;;;;;;8.60;6.20;;;;;;;21.94;53.60;100411.31;117340;1185;22814;-58
2021/10/22 08:50:20;;;;;;;9.20;5.70;;;;;;;22.07;53.49;100410.15;117481;1185;21858;-58
2021/10/22 08:52:50;;;;;;;11.10;5.70;;;;;;;22.20;53.50;100410.11;117415;1182;23445;-58
2021/10/22 08:55:18;;;;;;;9.70;5.20;;;;;;;22.33;53.48;100409.34;117405;1179;23548;-58
2021/10/22 08:57:47;;;;;;;11.60;5.20;;;;;;;22.46;53.36;100406.81;117472;1186;21865;-57
2021/10/22 09:00:18;;;;;;;8.30;5.40;;;;;;;22.57;53.35;100407.72;117474;1185;22985;-58
2021/10/22 09:02:49;;;;;;;11.10;6.70;;;;;;;22.65;53.39;100405.98;117438;1182;22459;-59
2021/10/22 09:05:25;;;;;;;12.70;6.60;;;;;;;22.76;53.18;100404.93;117433;1183;23545;-58
2021/10/22 09:07:55;;;;;;;11.40;7.00;;;;;;;22.89;53.15;100404.85;117460;1182;21866;-57
2021/10/22 09:10:28;;;;;;;13.30;6.80;;;;;;;23.00;53.19;100405.96;117375;1183;21867;-58
2021/10/22 09:13:03;;;;;;;14.30;7.20;;;;;;;23.12;53.47;100407.16;117364;1182;23465;-59
2021/10/22 09:15:37;;;;;;;11.90;6.80;;;;;;;23.22;53.33;100404.57;117366;1182;23441;-59
2021/10/22 09:18:15;;;;;;;10.80;6.30;;;;;;;23.33;53.32;100402.60;117370;1186;22649;-59
2021/10/22 09:20:51;;;;;;;11.50;7.20;;;;;;;23.46;53.12;100406.05;117391;1185;21963;-58
2021/10/22 09:23:24;;;;;;;16.30;7.50;;;;;;;23.60;52.84;100403.19;117302;1188;21856;-58
2021/10/22 09:25:54;;;;;;;15.10;7.40;;;;;;;23.75;52.65;100401.61;117293;1185;21880;-57
2021/10/22 09:28:26;;;;;;;10.50;6.70;;;;;;;23.87;52.61;100407.25;117376;1185;21971;-58
2021/10/22 09:30:55;;;;;;;9.10;6.10;;;;;;;23.92;52.66;100406.77;117398;1185;22742;-59
2021/10/22 09:33:25;;;;;;;12.30;6.30;;;;;;;24.04;52.69;100402.95;117368;1183;22918;-58
2021/10/22 09:35:54;;;;;;;12.90;6.90;;;;;;;24.15;52.77;100397.31;117396;1185;24178;-58
2021/10/22 09:38:29;;;;;;;18.80;7.60;;;;;;;24.25;52.65;100393.64;117355;1185;22918;-58
2021/10/22 09:41:06;;;;;;;15.60;7.80;;;;;;;24.32;52.66;100393.29;117450;1183;22903;-58
2021/10/22 09:43:39;;;;;;;13.20;7.40;;;;;;;24.39;52.55;100392.07;117446;1183;22048;-59
2021/10/22 09:46:18;;;;;;;11.80;7.90;;;;;;;24.49;52.27;100393.57;117397;1185;22921;-58
2021/10/22 09:48:48;;;;;;;12.50;7.30;;;;;;;24.62;52.26;100392.81;117554;1183;24262;-59
2021/10/22 09:51:33;;;;;;;9.90;7.10;;;;;;;24.70;52.34;100387.80;117508;1183;22966;-58
2021/10/22 09:54:03;;;;;;;10.70;6.60;;;;;;;24.80;52.14;100379.73;117416;1184;22869;-59
2021/10/22 09:56:31;;;;;;;11.30;7.60;;;;;;;24.89;52.01;100379.83;117453;1184;21848;-59
2021/10/22 09:59:04;;;;;;;16.00;6.60;;;;;;;24.91;52.06;100379.11;117500;1183;22323;-58
2021/10/22 10:01:36;;;;;;;16.00;9.00;;;;;;;24.91;51.98;100379.99;117488;1183;24139;-58
2021/10/22 10:04:13;;;;;;;18.00;8.60;;;;;;;24.95;51.99;100372.86;117532;1183;22521;-59
2021/10/22 10:07:00;;;;;;;14.30;7.40;;;;;;;25.08;52.07;100376.11;117402;1182;23461;-59
2021/10/22 10:09:28;;;;;;;9.40;6.50;;;;;;;25.22;52.00;100374.69;117559;1184;23466;-60
2021/10/22 10:12:01;;;;;;;12.40;6.90;;;;;;;25.36;51.97;100367.94;117524;1186;21855;-58
2021/10/22 10:14:30;;;;;;;17.70;7.60;;;;;;;25.46;51.95;100369.36;117520;1183;21863;-59
2021/10/22 10:17:00;;;;;;;13.50;8.30;;;;;;;25.52;51.76;100368.95;117350;1186;23548;-58
2021/10/22 10:19:31;;;;;;;15.20;9.10;;;;;;;25.51;51.58;100373.65;117513;1186;21891;-58
2021/10/22 10:22:11;;;;;;;17.20;7.60;;;;;;;25.40;51.34;100374.70;117491;1182;23814;-58
2021/10/22 10:24:51;;;;;;;11.10;7.00;;;;;;;25.24;51.34;100378.85;117423;1183;22921;-58
2021/10/22 10:27:25;;;;;;;10.40;8.10;;;;;;;25.11;51.18;100377.13;117531;1182;24155;-59
2021/10/22 10:29:59;;;;;;;9.00;6.80;;;;;;;24.96;51.22;100373.54;117348;1185;21901;-58
2021/10/22 10:32:29;;;;;;;10.80;6.50;;;;;;;24.90;51.29;100373.66;117479;1184;23543;-59
2021/10/22 10:34:57;;;;;;;12.40;7.70;;;;;;;24.88;51.12;100368.39;117484;1185;23442;-58
2021/10/22 10:37:31;;;;;;;12.30;7.20;;;;;;;24.76;51.26;100367.30;117517;1186;21867;-58
2021/10/22 10:40:00;;;;;;;8.20;6.20;;;;;;;24.65;51.12;100366.80;117533;1182;23452;-59
2021/10/22 10:42:29;;;;;;;11.40;7.30;;;;;;;24.53;51.23;100364.77;117562;1179;23547;-58
2021/10/22 10:44:58;;;;;;;12.90;7.90;;;;;;;24.52;51.28;100361.26;117578;1186;21861;-59
2021/10/22 10:47:27;;;;;;;24.20;8.90;;;;;;;24.57;51.16;100363.74;117412;1185;21861;-57
2021/10/22 10:49:55;;;;;;;18.00;8.80;;;;;;;24.54;51.01;100359.13;117537;1183;21862;-58
2021/10/22 10:52:39;;;;;;;18.20;8.60;;;;;;;24.47;50.86;100358.71;117586;1186;22333;-59
2021/10/22 10:55:29;;;;;;;23.60;10.00;;;;;;;24.34;50.79;100354.77;117519;1180;21852;-59
2021/10/22 10:58:07;;;;;;;20.40;9.80;;;;;;;24.18;50.69;100350.67;117508;1182;23469;-57
2021/10/22 11:00:39;;;;;;;67.80;13.10;;;;;;;24.06;50.71;100349.73;117523;1176;21861;-57
2021/10/22 11:03:11;;;;;;;49.10;12.10;;;;;;;24.01;50.95;100347.44;117315;1184;23567;-57
2021/10/22 11:05:49;;;;;;;99.10;15.70;;;;;;;24.08;50.94;100342.97;117533;1184;23469;-58
2021/10/22 11:08:22;;;;;;;26.20;9.10;;;;;;;24.14;50.92;100345.09;117519;1182;22963;-58
2021/10/22 11:11:08;;;;;;;21.80;8.40;;;;;;;24.19;51.00;100345.59;117479;1182;21960;-58
2021/10/22 11:13:55;;;;;;;67.50;12.70;;;;;;;24.30;51.01;100341.80;117528;1184;22529;-59
2021/10/22 11:16:25;;;;;;;61.70;10.20;;;;;;;24.40;50.96;100336.59;117474;1185;24162;-59
2021/10/22 11:19:18;;;;;;;31.20;9.40;;;;;;;24.51;50.98;100333.86;117502;1186;23442;-60
2021/10/22 11:21:57;;;;;;;108.30;15.10;;;;;;;24.61;51.01;100330.45;117520;1186;24124;-59
2021/10/22 11:24:27;;;;;;;65.60;11.90;;;;;;;24.74;51.01;100328.64;117516;1185;22622;-60
2021/10/22 11:27:04;;;;;;;15.50;7.80;;;;;;;24.86;50.95;100327.08;117406;1184;21856;-59